createdAt,value
2023-02-21T00:02:01.787Z,98005.84
2023-02-21T00:04:48.464Z,98012.34
2023-02-21T00:07:33.956Z,98008.84
2023-02-21T00:10:19.532Z,98009.94
2023-02-21T00:13:05.387Z,98004.91
2023-02-21T00:15:51.080Z,98008.66
2023-02-21T00:18:38.582Z,98012.41
2023-02-21T00:21:24.865Z,97996.94
2023-02-21T00:24:10.746Z,98004.13
2023-02-21T00:26:56.250Z,97994.78
2023-02-21T00:29:41.731Z,97997.66
2023-02-21T00:32:27.611Z,97996.94
2023-02-21T00:35:14.669Z,97991.06
2023-02-21T00:38:00.106Z,97992.16
2023-02-21T00:40:45.717Z,97992.41
2023-02-21T00:43:31.636Z,97997.91
2023-02-21T00:46:17.272Z,97994.69
2023-02-21T00:49:03.154Z,97993.00
2023-02-21T00:51:50.281Z,97996.03
2023-02-21T00:54:35.895Z,97991.97
2023-02-21T00:57:21.381Z,98000.13
2023-02-21T01:00:07.120Z,97995.09
2023-02-21T01:02:52.818Z,97995.31
2023-02-21T01:05:38.310Z,97999.06
2023-02-21T01:08:25.151Z,97990.53
2023-02-21T01:11:10.720Z,97984.53
2023-02-21T01:13:56.346Z,97987.28
2023-02-21T01:16:42.104Z,97984.06
2023-02-21T01:19:27.745Z,97983.47
2023-02-21T01:22:13.422Z,97989.84
2023-02-21T01:25:00.685Z,97988.38
2023-02-21T01:27:46.532Z,97979.88
2023-02-21T01:30:32.576Z,97974.72
2023-02-21T01:33:18.463Z,97968.00
2023-02-21T01:36:03.997Z,97959.50
2023-02-21T01:38:52.749Z,97959.75
2023-02-21T01:41:40.431Z,97955.66
2023-02-21T01:44:52.705Z,97962.97
2023-02-21T01:47:39.092Z,97958.66
2023-02-21T01:50:34.195Z,97959.84
2023-02-21T01:53:23.735Z,97956.50
2023-02-21T01:56:09.499Z,97964.66
2023-02-21T01:58:56.941Z,97963.81
2023-02-21T02:01:52.102Z,97946.66
2023-02-21T02:04:38.219Z,97954.66
2023-02-21T02:07:23.911Z,97954.78
2023-02-21T02:10:09.550Z,97947.13
2023-02-21T02:13:02.405Z,97954.28
2023-02-21T02:15:43.842Z,97937.75
2023-02-21T02:18:31.943Z,97948.53
2023-02-21T02:22:05.229Z,97950.59
2023-02-21T02:25:05.113Z,97952.72
2023-02-21T02:27:58.439Z,97954.63
2023-02-21T02:31:11.756Z,97962.06
2023-02-21T02:34:39.952Z,97951.03
2023-02-21T02:37:20.008Z,97958.34
2023-02-21T02:39:56.857Z,97954.97
2023-02-21T02:42:40.288Z,97953.31
2023-02-21T02:45:16.799Z,97944.66
2023-02-21T02:47:47.039Z,97937.72
2023-02-21T02:50:16.800Z,97931.84
2023-02-21T02:52:54.193Z,97936.25
2023-02-21T02:55:41.143Z,97935.56
2023-02-21T02:58:12.342Z,97932.06
2023-02-21T03:00:46.836Z,97932.19
2023-02-21T03:03:44.261Z,97933.28
2023-02-21T03:06:26.723Z,97925.59
2023-02-21T03:09:03.098Z,97929.16
2023-02-21T03:11:31.556Z,97934.66
2023-02-21T03:14:09.783Z,97929.50
2023-02-21T03:16:45.052Z,97929.63
2023-02-21T03:19:18.396Z,97924.72
2023-02-21T03:21:51.006Z,97933.56
2023-02-21T03:24:22.132Z,97932.88
2023-02-21T03:26:54.853Z,97933.91
2023-02-21T03:29:23.551Z,97939.28
2023-02-21T03:31:57.855Z,97941.22
2023-02-21T03:34:26.977Z,97932.59
2023-02-21T03:36:55.281Z,97929.22
2023-02-21T03:39:24.901Z,97929.22
2023-02-21T03:41:53.243Z,97933.91
2023-02-21T03:44:21.524Z,97929.69
2023-02-21T03:46:49.774Z,97930.63
2023-02-21T03:49:18.138Z,97935.16
2023-02-21T03:51:46.499Z,97931.72
2023-02-21T03:54:14.784Z,97931.84
2023-02-21T03:56:44.471Z,97924.88
2023-02-21T03:59:12.788Z,97928.56
2023-02-21T04:01:41.139Z,97926.91
2023-02-21T04:04:09.393Z,97933.22
2023-02-21T04:06:37.686Z,97942.06
2023-02-21T04:09:06.116Z,97941.34
2023-02-21T04:11:34.367Z,97945.78
2023-02-21T04:14:04.458Z,97950.31
2023-02-21T04:16:32.769Z,97953.06
2023-02-21T04:19:01.015Z,97949.69
2023-02-21T04:21:29.404Z,97953.28
2023-02-21T04:23:57.844Z,97944.66
2023-02-21T04:26:26.145Z,97942.97
2023-02-21T04:28:54.638Z,97938.69
2023-02-21T04:31:24.527Z,97950.13
2023-02-21T04:34:02.521Z,97948.47
2023-02-21T04:36:34.265Z,97939.84
2023-02-21T04:39:02.634Z,97939.13
2023-02-21T04:41:30.880Z,97941.88
2023-02-21T04:43:59.150Z,97945.47
2023-02-21T04:46:28.795Z,97944.72
2023-02-21T04:48:57.170Z,97943.16
2023-02-21T04:51:27.287Z,97950.94
2023-02-21T04:53:56.806Z,97945.78
2023-02-21T04:56:27.515Z,97951.16
2023-02-21T04:58:55.984Z,97951.16
2023-02-21T05:01:31.272Z,97952.22
2023-02-21T05:03:59.926Z,97948.75
2023-02-21T05:06:30.221Z,97958.53
2023-02-21T05:08:59.328Z,97943.72
2023-02-21T05:11:28.336Z,97947.28
2023-02-21T05:13:56.617Z,97944.66
2023-02-21T05:16:25.385Z,97944.88
2023-02-21T05:18:55.081Z,97942.34
2023-02-21T05:21:23.332Z,97935.41
2023-02-21T05:23:56.879Z,97939.81
2023-02-21T05:26:27.944Z,97941.63
2023-02-21T05:28:56.923Z,97944.50
2023-02-21T05:31:25.414Z,97940.16
2023-02-21T05:33:55.190Z,97942.06
2023-02-21T05:36:25.846Z,97945.63
2023-02-21T05:38:56.869Z,97948.50
2023-02-21T05:41:25.560Z,97948.59
2023-02-21T05:43:54.103Z,97945.16
2023-02-21T05:46:25.716Z,97948.72
2023-02-21T05:48:57.192Z,97957.56
2023-02-21T05:51:26.027Z,97949.88
2023-02-21T05:53:55.047Z,97948.22
2023-02-21T05:56:23.608Z,97951.78
2023-02-21T05:58:51.874Z,97948.44
2023-02-21T06:01:20.144Z,97945.81
2023-02-21T06:03:48.511Z,97952.00
2023-02-21T06:06:18.261Z,97953.06
2023-02-21T06:08:49.184Z,97948.66
2023-02-21T06:11:24.507Z,97951.28
2023-02-21T06:13:52.802Z,97951.19
2023-02-21T06:16:21.178Z,97957.25
2023-02-21T06:18:52.472Z,97959.88
2023-02-21T06:21:22.497Z,97965.13
2023-02-21T06:23:51.342Z,97966.09
2023-02-21T06:26:20.496Z,97969.69
2023-02-21T06:28:49.507Z,97973.28
2023-02-21T06:31:19.278Z,97970.66
2023-02-21T06:33:47.949Z,97967.28
2023-02-21T06:36:21.756Z,97980.41
2023-02-21T06:38:52.882Z,97985.78
2023-02-21T06:41:25.578Z,97984.94
2023-02-21T06:43:54.564Z,97979.78
2023-02-21T06:46:25.224Z,97988.53
2023-02-21T06:48:53.580Z,97991.16
2023-02-21T06:51:29.257Z,97988.41
2023-02-21T06:53:59.229Z,97990.09
2023-02-21T06:56:28.001Z,98003.97
2023-02-21T06:58:56.665Z,98000.38
2023-02-21T07:01:27.932Z,97999.31
2023-02-21T07:03:57.542Z,97999.22
2023-02-21T07:06:29.569Z,98008.47
2023-02-21T07:08:58.279Z,97996.06
2023-02-21T07:11:26.592Z,97994.78
2023-02-21T07:13:56.802Z,97989.22
2023-02-21T07:16:25.114Z,97985.19
2023-02-21T07:18:53.549Z,97980.34
2023-02-21T07:21:22.873Z,97985.97
2023-02-21T07:23:52.447Z,97984.47
2023-02-21T07:26:20.931Z,97999.47
2023-02-21T07:28:50.373Z,98002.19
2023-02-21T07:31:20.747Z,97997.19
2023-02-21T07:33:49.417Z,98001.06
2023-02-21T07:36:17.748Z,97989.97
2023-02-21T07:38:46.050Z,97999.81
2023-02-21T07:41:17.178Z,97997.53
2023-02-21T07:43:45.642Z,97999.72
2023-02-21T07:46:15.272Z,97999.38
2023-02-21T07:48:43.574Z,97994.38
2023-02-21T07:51:12.099Z,97994.88
2023-02-21T07:53:41.698Z,97998.84
2023-02-21T07:56:10.100Z,98006.28
2023-02-21T07:58:39.921Z,98004.22
2023-02-21T08:01:09.281Z,98006.41
2023-02-21T08:03:38.729Z,98005.94
2023-02-21T08:06:07.286Z,98003.91
2023-02-21T08:08:35.700Z,98004.44
2023-02-21T08:11:04.180Z,98002.28
2023-02-21T08:13:32.453Z,98004.31
2023-02-21T08:16:02.111Z,97996.06
2023-02-21T08:18:30.456Z,98007.09
2023-02-21T08:20:58.740Z,98006.84
2023-02-21T08:23:27.046Z,98008.78
2023-02-21T08:25:55.347Z,97999.66
2023-02-21T08:28:23.662Z,98008.88
2023-02-21T08:30:52.697Z,98005.75
2023-02-21T08:33:22.611Z,98005.28
2023-02-21T08:35:50.993Z,98003.97
2023-02-21T08:38:21.250Z,98008.72
2023-02-21T08:40:51.418Z,98010.88
2023-02-21T08:43:19.714Z,98003.44
2023-02-21T08:45:48.069Z,98009.09
2023-02-21T08:48:16.366Z,98017.22
2023-02-21T08:50:46.140Z,98013.97
2023-02-21T08:53:15.694Z,98011.78
2023-02-21T08:55:44.202Z,98011.19
2023-02-21T08:58:13.820Z,98008.03
2023-02-21T09:00:42.883Z,98008.34
2023-02-21T09:03:11.181Z,98012.06
2023-02-21T09:05:40.646Z,98015.03
2023-02-21T09:08:11.455Z,98003.81
2023-02-21T09:10:47.370Z,98000.66
2023-02-21T09:13:16.006Z,97999.22
2023-02-21T09:15:44.985Z,97998.44
2023-02-21T09:18:13.587Z,97993.25
2023-02-21T09:20:42.809Z,97997.75
2023-02-21T09:23:15.426Z,97994.06
2023-02-21T09:25:43.707Z,98000.84
2023-02-21T09:28:12.012Z,97998.81
2023-02-21T09:30:40.342Z,97994.97
2023-02-21T09:33:09.303Z,97983.19
2023-02-21T09:35:37.605Z,97994.22
2023-02-21T09:38:07.137Z,97994.00
2023-02-21T09:40:43.149Z,97993.63
2023-02-21T09:43:17.101Z,97995.19
2023-02-21T09:45:47.105Z,97999.25
2023-02-21T09:48:19.770Z,98004.28
2023-02-21T09:50:51.729Z,98005.66
2023-02-21T09:53:24.617Z,97998.44
2023-02-21T09:56:00.209Z,97997.31
2023-02-21T09:58:30.304Z,97995.47
2023-02-21T10:01:02.751Z,97997.13
2023-02-21T10:03:55.206Z,97999.63
2023-02-21T10:06:39.361Z,97995.28
2023-02-21T10:09:19.637Z,97995.28
2023-02-21T10:12:03.635Z,97991.75
2023-02-21T10:14:44.791Z,97989.94
2023-02-21T10:17:22.878Z,97994.03
2023-02-21T10:19:56.629Z,97994.72
2023-02-21T10:22:30.295Z,97994.34
2023-02-21T10:24:58.638Z,97996.53
2023-02-21T10:27:32.361Z,97989.19
2023-02-21T10:30:05.751Z,97991.63
2023-02-21T10:32:34.593Z,97998.56
2023-02-21T10:35:02.891Z,97990.53
2023-02-21T10:37:41.260Z,97989.78
2023-02-21T10:40:33.345Z,97992.53
2023-02-21T10:43:09.502Z,97983.78
2023-02-21T10:45:45.552Z,97979.81
2023-02-21T10:48:15.237Z,97983.38
2023-02-21T10:50:51.798Z,97985.06
2023-02-21T10:53:30.676Z,97978.81
2023-02-21T10:56:26.139Z,97979.19
2023-02-21T10:58:59.395Z,97975.38
2023-02-21T11:01:39.728Z,97978.56
2023-02-21T11:04:25.595Z,97966.44
2023-02-21T11:06:56.747Z,97967.53
2023-02-21T11:09:37.153Z,97967.06
2023-02-21T11:12:18.912Z,97959.41
2023-02-21T11:15:17.477Z,97955.31
2023-02-21T11:17:47.085Z,97956.50
2023-02-21T11:20:23.563Z,97949.69
2023-02-21T11:22:52.778Z,97948.22
2023-02-21T11:25:28.250Z,97938.81
2023-02-21T11:28:08.636Z,97940.00
2023-02-21T11:30:44.490Z,97935.03
2023-02-21T11:33:12.920Z,97931.72
2023-02-21T11:35:47.987Z,97926.06
2023-02-21T11:38:36.599Z,97920.59
2023-02-21T11:41:17.950Z,97921.75
2023-02-21T11:43:50.750Z,97917.78
2023-02-21T11:46:34.200Z,97908.13
2023-02-21T11:49:07.885Z,97911.84
2023-02-21T11:51:43.288Z,97905.69
2023-02-21T11:54:12.141Z,97899.53
2023-02-21T11:56:49.726Z,97897.03
2023-02-21T11:59:34.300Z,97892.72
2023-02-21T12:02:37.509Z,97890.38
2023-02-21T12:05:19.974Z,97879.22
2023-02-21T12:07:57.585Z,97872.38
2023-02-21T12:10:43.721Z,97866.22
2023-02-21T12:13:25.411Z,97864.56
2023-02-21T12:16:03.237Z,97851.75
2023-02-21T12:18:50.791Z,97848.34
2023-02-21T12:21:44.440Z,97837.34
2023-02-21T12:24:29.622Z,97838.81
2023-02-21T12:27:04.082Z,97847.44
2023-02-21T12:29:58.197Z,97833.41
2023-02-21T12:32:51.154Z,97832.41
2023-02-21T12:36:12.294Z,97825.69
2023-02-21T12:38:54.819Z,97831.19
2023-02-21T12:41:51.630Z,97819.13
2023-02-21T12:44:23.722Z,97822.66
2023-02-21T12:46:59.064Z,97825.16
2023-02-21T12:49:36.512Z,97820.94
2023-02-21T12:52:16.626Z,97816.72
2023-02-21T12:54:51.865Z,97814.38
2023-02-21T12:57:27.660Z,97810.84
2023-02-21T13:00:08.011Z,97795.97
2023-02-21T13:02:44.861Z,97797.47
2023-02-21T13:05:19.743Z,97787.03
2023-02-21T13:07:57.020Z,97774.84
2023-02-21T13:10:31.526Z,97760.94
2023-02-21T13:13:04.464Z,97751.16
2023-02-21T13:15:33.212Z,97755.81
2023-02-21T13:18:08.024Z,97750.09
2023-02-21T13:20:40.366Z,97760.06
2023-02-21T13:24:10.108Z,97758.69
2023-02-21T13:27:16.669Z,97749.88
2023-02-21T13:29:45.846Z,97751.16
2023-02-21T13:32:17.429Z,97750.63
2023-02-21T13:34:53.858Z,97743.88
2023-02-21T13:37:27.477Z,97741.81
2023-02-21T13:40:07.499Z,97737.41
2023-02-21T13:42:38.997Z,97735.47
2023-02-21T13:45:19.532Z,97724.31
2023-02-21T13:48:21.197Z,97727.72
2023-02-21T13:50:51.472Z,97729.00
2023-02-21T13:53:22.863Z,97728.00
2023-02-21T13:56:18.708Z,97722.94
2023-02-21T13:58:48.775Z,97720.06
2023-02-21T14:01:42.925Z,97706.97
2023-02-21T14:05:06.712Z,97710.72
2023-02-21T14:08:03.635Z,97700.84
2023-02-21T14:10:39.397Z,97703.34
2023-02-21T14:13:22.693Z,97706.66
2023-02-21T14:15:59.313Z,97704.63
2023-02-21T14:18:31.742Z,97701.94
2023-02-21T14:21:00.738Z,97698.44
2023-02-21T14:23:42.311Z,97694.28
2023-02-21T14:26:42.250Z,97693.00
2023-02-21T14:29:28.955Z,97684.31
2023-02-21T14:31:59.333Z,97687.38
2023-02-21T14:34:38.889Z,97681.09
2023-02-21T14:37:18.591Z,97691.34
2023-02-21T14:39:53.906Z,97689.41
2023-02-21T14:42:42.408Z,97682.78
2023-02-21T14:45:56.440Z,97684.53
2023-02-21T14:49:00.344Z,97679.91
2023-02-21T14:52:03.856Z,97683.97
2023-02-21T14:55:25.328Z,97665.97
2023-02-21T14:58:37.817Z,97663.03
2023-02-21T15:01:14.778Z,97661.72
2023-02-21T15:03:48.998Z,97658.59
2023-02-21T15:06:23.725Z,97655.91
2023-02-21T15:08:54.924Z,97652.53
2023-02-21T15:11:28.789Z,97648.41
2023-02-21T15:14:26.219Z,97643.59
2023-02-21T15:16:57.938Z,97641.28
2023-02-21T15:19:30.411Z,97637.16
2023-02-21T15:22:24.173Z,97634.00
2023-02-21T15:25:21.977Z,97629.19
2023-02-21T15:28:22.256Z,97632.41
2023-02-21T15:31:02.666Z,97630.09
2023-02-21T15:33:34.792Z,97629.63
2023-02-21T15:36:07.297Z,97635.34
2023-02-21T15:38:41.756Z,97631.56
2023-02-21T15:41:16.649Z,97624.91
2023-02-21T15:43:51.389Z,97619.28
2023-02-21T15:46:25.337Z,97620.47
2023-02-21T15:48:55.996Z,97623.69
2023-02-21T15:51:24.720Z,97615.38
2023-02-21T15:54:27.550Z,97611.78
2023-02-21T15:57:04.144Z,97615.81
2023-02-21T15:59:33.765Z,97615.34
2023-02-21T16:02:17.209Z,97611.72
2023-02-21T16:04:47.914Z,97609.75
2023-02-21T16:07:21.997Z,97621.78
2023-02-21T16:09:53.443Z,97614.28
2023-02-21T16:12:34.465Z,97610.69
2023-02-21T16:15:07.856Z,97617.41
2023-02-21T16:17:40.165Z,97619.59
2023-02-21T16:20:18.699Z,97614.94
2023-02-21T16:25:37.489Z,97621.34
2023-02-21T16:28:14.121Z,97625.56
2023-02-21T16:30:42.503Z,97619.72
2023-02-21T16:33:14.970Z,97621.94
2023-02-21T16:35:44.531Z,97624.13
2023-02-21T16:38:17.583Z,97612.31
2023-02-21T16:40:46.553Z,97619.81
2023-02-21T16:43:19.998Z,97623.03
2023-02-21T16:45:49.565Z,97625.41
2023-02-21T16:48:23.586Z,97628.09
2023-02-21T16:50:52.908Z,97626.13
2023-02-21T16:53:22.992Z,97625.28
2023-02-21T16:55:52.856Z,97630.81
2023-02-21T16:58:26.584Z,97625.88
2023-02-21T17:00:57.518Z,97632.06
2023-02-21T17:03:28.537Z,97626.56
2023-02-21T17:05:58.360Z,97631.91
2023-02-21T17:08:27.725Z,97628.25
2023-02-21T17:10:57.248Z,97623.78
2023-02-21T17:13:25.655Z,97623.63
2023-02-21T17:15:54.750Z,97626.13
2023-02-21T17:18:23.073Z,97627.13
2023-02-21T17:20:52.704Z,97621.63
2023-02-21T17:23:21.072Z,97622.47
2023-02-21T17:25:49.757Z,97624.09
2023-02-21T17:28:18.424Z,97620.44
2023-02-21T17:30:47.669Z,97626.28
2023-02-21T17:33:16.225Z,97636.56
2023-02-21T17:35:44.831Z,97630.94
2023-02-21T17:38:14.864Z,97631.59
2023-02-21T17:40:45.622Z,97640.88
2023-02-21T17:43:16.511Z,97639.72
2023-02-21T17:45:46.076Z,97633.72
2023-02-21T17:48:14.388Z,97637.72
2023-02-21T17:50:42.756Z,97631.06
2023-02-21T17:53:11.044Z,97633.34
2023-02-21T17:55:40.838Z,97635.69
2023-02-21T17:58:09.710Z,97634.34
2023-02-21T18:00:39.368Z,97633.00
2023-02-21T18:03:09.348Z,97631.84
2023-02-21T18:05:38.282Z,97629.66
2023-02-21T18:08:07.556Z,97624.13
2023-02-21T18:10:35.946Z,97634.41
2023-02-21T18:13:05.799Z,97627.22
2023-02-21T18:15:34.066Z,97627.72
2023-02-21T18:18:07.119Z,97625.56
2023-02-21T18:20:46.972Z,97635.66
2023-02-21T18:23:16.259Z,97625.50
2023-02-21T18:25:44.566Z,97623.31
2023-02-21T18:28:14.224Z,97628.94
2023-02-21T18:30:42.874Z,97633.56
2023-02-21T18:33:11.195Z,97629.41
2023-02-21T18:35:39.401Z,97624.41
2023-02-21T18:38:07.744Z,97623.06
2023-02-21T18:40:37.769Z,97623.53
2023-02-21T18:43:06.960Z,97616.03
2023-02-21T18:45:36.792Z,97625.31
2023-02-21T18:48:05.363Z,97622.16
2023-02-21T18:50:33.577Z,97625.44
2023-02-21T18:53:03.943Z,97628.56
2023-02-21T18:55:32.301Z,97618.56
2023-02-21T18:58:00.776Z,97621.00
2023-02-21T19:00:31.101Z,97616.28
2023-02-21T19:03:01.139Z,97626.72
2023-02-21T19:05:29.970Z,97635.31
2023-02-21T19:07:59.330Z,97637.59
2023-02-21T19:10:29.520Z,97636.38
2023-02-21T19:12:59.431Z,97633.50
2023-02-21T19:15:27.817Z,97630.50
2023-02-21T19:17:56.037Z,97633.75
2023-02-21T19:20:25.916Z,97641.44
2023-02-21T19:22:55.668Z,97639.41
2023-02-21T19:25:26.906Z,97640.69
2023-02-21T19:28:00.371Z,97639.47
2023-02-21T19:30:32.869Z,97636.44
2023-02-21T19:33:02.561Z,97638.56
2023-02-21T19:35:34.225Z,97636.22
2023-02-21T19:38:05.669Z,97637.50
2023-02-21T19:40:35.809Z,97629.84
2023-02-21T19:43:06.393Z,97636.44
2023-02-21T19:45:35.225Z,97633.09
2023-02-21T19:48:03.606Z,97630.88
2023-02-21T19:50:34.834Z,97631.19
2023-02-21T19:53:03.294Z,97637.63
2023-02-21T19:55:31.978Z,97636.25
2023-02-21T19:58:00.295Z,97636.53
2023-02-21T20:00:29.717Z,97647.44
2023-02-21T20:02:57.936Z,97647.91
2023-02-21T20:05:27.243Z,97638.56
2023-02-21T20:07:57.929Z,97637.06
2023-02-21T20:10:26.821Z,97641.81
2023-02-21T20:12:56.617Z,97641.44
2023-02-21T20:15:25.139Z,97647.03
2023-02-21T20:17:54.753Z,97643.81
2023-02-21T20:20:23.075Z,97646.06
2023-02-21T20:22:51.333Z,97644.00
2023-02-21T20:25:21.940Z,97647.94
2023-02-21T20:27:50.246Z,97653.53
2023-02-21T20:30:18.890Z,97646.84
2023-02-21T20:32:47.149Z,97646.28
2023-02-21T20:35:15.433Z,97651.88
2023-02-21T20:37:43.721Z,97655.66
2023-02-21T20:40:15.325Z,97651.63
2023-02-21T20:42:45.025Z,97649.69
2023-02-21T20:45:13.562Z,97657.78
2023-02-21T20:47:41.813Z,97661.66
2023-02-21T20:50:10.445Z,97654.00
2023-02-21T20:52:40.949Z,97659.72
2023-02-21T20:55:10.441Z,97661.00
2023-02-21T20:57:38.702Z,97665.06
2023-02-21T21:00:10.411Z,97661.84
2023-02-21T21:02:39.266Z,97663.97
2023-02-21T21:05:13.656Z,97661.75
2023-02-21T21:07:44.461Z,97659.38
2023-02-21T21:10:16.493Z,97659.81
2023-02-21T21:12:45.548Z,97654.78
2023-02-21T21:15:15.878Z,97650.72
2023-02-21T21:17:44.669Z,97651.00
2023-02-21T21:20:17.882Z,97652.41
2023-02-21T21:22:46.544Z,97655.50
2023-02-21T21:25:17.078Z,97654.78
2023-02-21T21:27:46.567Z,97655.06
2023-02-21T21:30:22.693Z,97658.25
2023-02-21T21:32:51.280Z,97662.16
2023-02-21T21:35:20.887Z,97646.72
2023-02-21T21:37:50.090Z,97661.78
2023-02-21T21:40:18.673Z,97659.53
2023-02-21T21:42:50.421Z,97660.75
2023-02-21T21:45:25.072Z,97659.25
2023-02-21T21:47:58.444Z,97653.38
2023-02-21T21:50:27.564Z,97656.16
2023-02-21T21:52:58.510Z,97661.72
2023-02-21T21:55:30.719Z,97664.50
2023-02-21T21:57:59.290Z,97658.69
2023-02-21T22:00:30.987Z,97663.25
2023-02-21T22:03:02.028Z,97658.25
2023-02-21T22:05:32.251Z,97671.72
2023-02-21T22:08:00.679Z,97650.16
2023-02-21T22:10:30.272Z,97659.19
2023-02-21T22:13:00.534Z,97659.59
2023-02-21T22:15:31.368Z,97661.53
2023-02-21T22:18:03.890Z,97660.81
2023-02-21T22:20:32.344Z,97669.88
2023-02-21T22:23:00.774Z,97669.28
2023-02-21T22:25:32.013Z,97666.91
2023-02-21T22:28:04.833Z,97672.47
2023-02-21T22:30:34.431Z,97667.44
2023-02-21T22:33:03.584Z,97661.59
2023-02-21T22:35:31.972Z,97661.03
2023-02-21T22:38:02.628Z,97661.31
2023-02-21T22:40:35.613Z,97646.53
2023-02-21T22:43:08.959Z,97642.63
2023-02-21T22:45:39.359Z,97645.28
2023-02-21T22:48:10.099Z,97642.91
2023-02-21T22:50:39.491Z,97639.72
2023-02-21T22:53:13.046Z,97643.44
2023-02-21T22:55:41.565Z,97648.03
2023-02-21T22:58:11.333Z,97635.91
2023-02-21T23:00:41.094Z,97645.81
2023-02-21T23:03:13.803Z,97636.44
2023-02-21T23:05:44.664Z,97640.19
2023-02-21T23:08:15.582Z,97642.25
2023-02-21T23:10:44.610Z,97633.78
2023-02-21T23:13:15.348Z,97634.06
2023-02-21T23:15:46.547Z,97619.41
2023-02-21T23:18:20.453Z,97629.97
2023-02-21T23:20:52.702Z,97639.00
2023-02-21T23:23:21.953Z,97633.16
2023-02-21T23:25:50.282Z,97634.13
2023-02-21T23:28:18.648Z,97644.94
2023-02-21T23:30:49.651Z,97630.09
2023-02-21T23:33:22.879Z,97625.88
2023-02-21T23:35:53.672Z,97631.47
2023-02-21T23:38:28.167Z,97633.50
2023-02-21T23:40:59.652Z,97633.78
2023-02-21T23:43:30.266Z,97629.59
2023-02-21T23:46:01.247Z,97629.72
2023-02-21T23:48:32.669Z,97625.53
2023-02-21T23:51:01.365Z,97630.94
2023-02-21T23:53:31.833Z,97619.69
2023-02-21T23:56:00.754Z,97626.03
2023-02-21T23:58:31.525Z,97619.25
